createdAt,value
2022-09-09T00:00:56.829Z,65.26
2022-09-09T00:02:04.471Z,65.45
2022-09-09T00:03:13.277Z,65.47
2022-09-09T00:04:24.062Z,65.03
2022-09-09T00:05:33.661Z,65.01
2022-09-09T00:06:45.845Z,65.58
2022-09-09T00:07:49.811Z,65.45
2022-09-09T00:09:03.229Z,65.23
2022-09-09T00:10:17.129Z,65.20
2022-09-09T00:11:31.358Z,65.42
2022-09-09T00:12:41.861Z,65.61
2022-09-09T00:13:49.160Z,65.69
2022-09-09T00:14:55.513Z,65.71
2022-09-09T00:16:02.987Z,65.83
2022-09-09T00:17:12.912Z,65.87
2022-09-09T00:18:21.253Z,65.86
2022-09-09T00:19:28.577Z,66.15
2022-09-09T00:20:36.821Z,66.17
2022-09-09T00:21:44.441Z,65.87
2022-09-09T00:22:52.318Z,66.64
2022-09-09T00:23:55.700Z,65.97
2022-09-09T00:25:09.501Z,66.08
2022-09-09T00:26:20.426Z,66.23
2022-09-09T00:27:32.184Z,65.80
2022-09-09T00:28:39.904Z,65.54
2022-09-09T00:29:46.024Z,65.55
2022-09-09T00:30:47.962Z,65.76
2022-09-09T00:31:49.475Z,65.72
2022-09-09T00:32:54.969Z,65.87
2022-09-09T00:34:03.585Z,66.88
2022-09-09T00:35:16.865Z,66.05
2022-09-09T00:36:23.436Z,66.27
2022-09-09T00:37:27.332Z,66.22
2022-09-09T00:38:34.713Z,66.41
2022-09-09T00:39:42.055Z,65.91
2022-09-09T00:40:50.377Z,66.41
2022-09-09T00:42:06.670Z,66.60
2022-09-09T00:43:26.345Z,66.29
2022-09-09T00:44:32.351Z,66.57
2022-09-09T00:45:53.340Z,66.63
2022-09-09T00:47:04.637Z,67.58
2022-09-09T00:48:11.188Z,66.51
2022-09-09T00:49:20.927Z,66.27
2022-09-09T00:50:40.023Z,66.78
2022-09-09T00:51:52.090Z,66.67
2022-09-09T00:53:03.308Z,67.12
2022-09-09T00:54:28.786Z,66.75
2022-09-09T00:55:41.710Z,67.02
2022-09-09T00:56:50.451Z,67.02
2022-09-09T00:57:53.807Z,67.46
2022-09-09T00:59:05.404Z,67.32
2022-09-09T01:00:22.833Z,67.16
2022-09-09T01:01:24.450Z,66.94
2022-09-09T01:02:33.127Z,67.02
2022-09-09T01:03:37.975Z,67.05
2022-09-09T01:04:39.522Z,67.24
2022-09-09T01:05:52.348Z,68.21
2022-09-09T01:07:03.630Z,68.60
2022-09-09T01:08:26.801Z,67.54
2022-09-09T01:09:33.570Z,69.82
2022-09-09T01:10:45.533Z,70.02
2022-09-09T01:11:56.016Z,68.93
2022-09-09T01:13:03.808Z,69.38
2022-09-09T01:14:30.647Z,69.85
2022-09-09T01:15:35.030Z,69.93
2022-09-09T01:16:37.263Z,70.06
2022-09-09T01:17:50.535Z,71.18
2022-09-09T01:18:54.443Z,71.03
2022-09-09T01:20:07.491Z,70.40
2022-09-09T01:21:19.688Z,70.14
2022-09-09T01:22:31.366Z,70.11
2022-09-09T01:23:54.963Z,70.90
2022-09-09T01:25:20.692Z,70.56
2022-09-09T01:26:34.917Z,71.30
2022-09-09T01:27:37.461Z,71.51
2022-09-09T01:28:40.193Z,72.42
2022-09-09T01:29:41.876Z,71.07
2022-09-09T01:30:43.593Z,72.61
2022-09-09T01:31:54.228Z,71.89
2022-09-09T01:32:58.642Z,72.71
2022-09-09T01:34:00.122Z,73.32
2022-09-09T01:35:04.175Z,71.27
2022-09-09T01:36:10.202Z,70.90
2022-09-09T01:37:14.031Z,71.08
2022-09-09T01:38:16.451Z,72.09
2022-09-09T01:39:18.026Z,71.47
2022-09-09T01:40:19.533Z,72.08
2022-09-09T01:41:21.485Z,73.71
2022-09-09T01:42:24.288Z,71.76
2022-09-09T01:43:27.399Z,72.06
2022-09-09T01:44:30.744Z,73.35
2022-09-09T01:45:32.189Z,72.16
2022-09-09T01:46:33.716Z,73.74
2022-09-09T01:47:36.027Z,73.76
2022-09-09T01:48:37.715Z,72.05
2022-09-09T01:49:39.245Z,73.04
2022-09-09T01:50:40.714Z,72.84
2022-09-09T01:51:44.405Z,72.64
2022-09-09T01:52:49.277Z,71.87
2022-09-09T01:53:50.988Z,72.10
2022-09-09T01:54:52.551Z,72.10
2022-09-09T01:56:04.892Z,71.90
2022-09-09T01:57:16.499Z,72.56
2022-09-09T01:58:32.163Z,72.12
2022-09-09T01:59:48.857Z,71.99
2022-09-09T02:01:00.331Z,71.78
2022-09-09T02:02:10.085Z,72.32
2022-09-09T02:03:23.925Z,72.05
2022-09-09T02:04:37.231Z,72.08
2022-09-09T02:05:41.775Z,72.08
2022-09-09T02:06:46.801Z,71.79
2022-09-09T02:07:49.592Z,71.98
2022-09-09T02:08:54.888Z,72.28
2022-09-09T02:10:02.224Z,71.65
2022-09-09T02:11:07.841Z,71.47
2022-09-09T02:12:14.140Z,71.81
2022-09-09T02:13:18.341Z,71.75
2022-09-09T02:14:25.994Z,71.70
2022-09-09T02:15:32.022Z,72.01
2022-09-09T02:16:38.407Z,72.84
2022-09-09T02:17:42.380Z,71.46
2022-09-09T02:18:48.512Z,71.42
2022-09-09T02:19:54.861Z,71.56
2022-09-09T02:20:57.465Z,71.55
2022-09-09T02:22:01.377Z,71.45
2022-09-09T02:23:02.990Z,71.35
2022-09-09T02:24:07.644Z,72.40
2022-09-09T02:25:13.045Z,74.82
2022-09-09T02:26:17.044Z,73.11
2022-09-09T02:27:19.462Z,73.55
2022-09-09T02:28:23.486Z,72.98
2022-09-09T02:29:29.831Z,73.72
2022-09-09T02:30:34.831Z,72.86
2022-09-09T02:31:38.966Z,72.39
2022-09-09T02:32:43.248Z,72.45
2022-09-09T02:33:48.751Z,72.14
2022-09-09T02:34:56.104Z,71.82
2022-09-09T02:35:58.959Z,71.84
2022-09-09T02:37:02.516Z,72.16
2022-09-09T02:38:08.609Z,72.05
2022-09-09T02:39:11.325Z,72.20
2022-09-09T02:40:15.391Z,72.90
2022-09-09T02:41:17.874Z,72.32
2022-09-09T02:42:19.398Z,72.02
2022-09-09T02:43:20.927Z,72.25
2022-09-09T02:44:22.373Z,71.85
2022-09-09T02:45:28.541Z,71.70
2022-09-09T02:47:08.407Z,71.61
2022-09-09T02:48:18.923Z,71.73
2022-09-09T02:49:28.807Z,72.10
2022-09-09T02:50:34.555Z,72.25
2022-09-09T02:51:43.408Z,72.81
2022-09-09T02:52:56.117Z,72.98
2022-09-09T02:54:05.288Z,72.60
2022-09-09T02:55:20.924Z,72.64
2022-09-09T02:56:26.595Z,72.40
2022-09-09T02:57:31.493Z,72.96
2022-09-09T02:58:33.020Z,73.67
2022-09-09T02:59:34.979Z,73.91
2022-09-09T03:00:39.857Z,73.92
2022-09-09T03:01:41.350Z,73.56
2022-09-09T03:02:42.818Z,72.99
2022-09-09T03:03:44.517Z,73.52
2022-09-09T03:04:46.091Z,73.32
2022-09-09T03:05:47.893Z,73.59
2022-09-09T03:06:49.380Z,73.21
2022-09-09T03:07:50.879Z,73.15
2022-09-09T03:08:52.338Z,73.03
2022-09-09T03:09:53.773Z,73.06
2022-09-09T03:10:55.785Z,72.98
2022-09-09T03:11:57.506Z,73.18
2022-09-09T03:12:59.074Z,73.33
2022-09-09T03:14:00.548Z,72.47
2022-09-09T03:15:02.005Z,72.30
2022-09-09T03:16:05.270Z,72.10
2022-09-09T03:17:06.841Z,71.63
2022-09-09T03:18:08.421Z,71.55
2022-09-09T03:19:10.127Z,71.24
2022-09-09T03:20:11.696Z,70.98
2022-09-09T03:21:13.143Z,70.75
2022-09-09T03:22:14.617Z,70.75
2022-09-09T03:23:16.204Z,70.38
2022-09-09T03:24:17.677Z,70.34
2022-09-09T03:25:19.279Z,70.07
2022-09-09T03:26:20.761Z,69.83
2022-09-09T03:27:22.298Z,70.12
2022-09-09T03:28:23.759Z,70.02
2022-09-09T03:29:25.261Z,70.14
2022-09-09T03:30:28.440Z,70.06
2022-09-09T03:31:31.308Z,70.17
2022-09-09T03:32:32.880Z,70.28
2022-09-09T03:33:34.351Z,70.73
2022-09-09T03:34:35.822Z,70.32
2022-09-09T03:35:37.327Z,70.69
2022-09-09T03:36:38.759Z,70.28
2022-09-09T03:37:40.207Z,70.28
2022-09-09T03:38:41.790Z,70.92
2022-09-09T03:39:43.266Z,71.75
2022-09-09T03:40:50.680Z,72.82
2022-09-09T03:41:52.128Z,73.03
2022-09-09T03:42:53.551Z,73.18
2022-09-09T03:43:55.328Z,73.70
2022-09-09T03:44:56.749Z,73.69
2022-09-09T03:45:58.303Z,75.00
2022-09-09T03:47:01.193Z,75.27
2022-09-09T03:48:03.238Z,75.81
2022-09-09T03:49:04.663Z,76.14
2022-09-09T03:50:07.158Z,77.25
2022-09-09T03:51:08.613Z,77.02
2022-09-09T03:52:10.083Z,77.84
2022-09-09T03:53:11.569Z,77.94
2022-09-09T03:54:12.976Z,78.01
2022-09-09T03:55:14.465Z,78.35
2022-09-09T03:56:15.933Z,78.40
2022-09-09T03:57:17.839Z,78.63
2022-09-09T03:58:19.631Z,78.32
2022-09-09T03:59:21.137Z,78.71
2022-09-09T04:00:22.560Z,79.20
2022-09-09T04:01:24.147Z,78.90
2022-09-09T04:02:27.007Z,79.03
2022-09-09T04:03:29.575Z,79.08
2022-09-09T04:04:31.075Z,79.52
2022-09-09T04:05:32.491Z,79.48
2022-09-09T04:06:34.046Z,78.84
2022-09-09T04:07:35.512Z,78.77
2022-09-09T04:08:37.436Z,78.77
2022-09-09T04:09:39.011Z,79.69
2022-09-09T04:10:40.489Z,79.87
2022-09-09T04:11:41.964Z,79.78
2022-09-09T04:12:45.673Z,80.38
2022-09-09T04:13:50.388Z,81.45
2022-09-09T04:14:51.831Z,81.78
2022-09-09T04:15:54.791Z,81.62
2022-09-09T04:16:56.579Z,81.97
2022-09-09T04:17:59.442Z,81.44
2022-09-09T04:19:00.904Z,82.34
2022-09-09T04:20:02.744Z,82.03
2022-09-09T04:21:04.623Z,83.00
2022-09-09T04:22:06.025Z,83.30
2022-09-09T04:23:07.505Z,83.58
2022-09-09T04:24:09.165Z,83.92
2022-09-09T04:25:10.652Z,82.95
2022-09-09T04:26:12.185Z,82.44
2022-09-09T04:27:13.621Z,82.79
2022-09-09T04:28:15.610Z,82.86
2022-09-09T04:29:17.067Z,83.37
2022-09-09T04:30:18.479Z,82.75
2022-09-09T04:31:22.514Z,82.69
2022-09-09T04:32:24.288Z,82.77
2022-09-09T04:33:27.366Z,82.87
2022-09-09T04:34:29.912Z,82.33
2022-09-09T04:35:31.424Z,83.39
2022-09-09T04:36:33.243Z,83.02
2022-09-09T04:37:34.700Z,82.74
2022-09-09T04:38:36.455Z,82.05
2022-09-09T04:39:38.034Z,81.50
2022-09-09T04:40:39.658Z,81.97
2022-09-09T04:41:41.076Z,82.69
2022-09-09T04:42:42.536Z,82.17
2022-09-09T04:43:43.977Z,82.30
2022-09-09T04:44:45.415Z,82.64
2022-09-09T04:45:49.187Z,82.77
2022-09-09T04:46:50.656Z,82.91
2022-09-09T04:47:52.092Z,82.76
2022-09-09T04:48:54.870Z,83.26
2022-09-09T04:49:56.349Z,83.17
2022-09-09T04:50:59.147Z,82.87
2022-09-09T04:52:00.605Z,82.89
2022-09-09T04:53:02.488Z,83.95
2022-09-09T04:54:04.051Z,83.68
2022-09-09T04:55:06.719Z,83.39
2022-09-09T04:56:09.906Z,83.42
2022-09-09T04:57:14.241Z,83.93
2022-09-09T04:58:19.559Z,83.80
2022-09-09T04:59:21.017Z,83.66
2022-09-09T05:00:22.481Z,83.65
2022-09-09T05:01:24.393Z,84.11
2022-09-09T05:02:29.659Z,84.53
2022-09-09T05:03:32.831Z,84.01
2022-09-09T05:04:35.629Z,83.53
2022-09-09T05:05:37.332Z,84.34
2022-09-09T05:06:38.787Z,84.36
2022-09-09T05:07:40.232Z,84.82
2022-09-09T05:08:43.153Z,84.55
2022-09-09T05:09:44.607Z,84.45
2022-09-09T05:10:46.036Z,85.05
2022-09-09T05:11:47.555Z,84.42
2022-09-09T05:12:53.933Z,84.83
2022-09-09T05:13:56.163Z,84.76
2022-09-09T05:14:57.640Z,84.48
2022-09-09T05:15:59.186Z,84.70
2022-09-09T05:17:00.660Z,84.37
2022-09-09T05:18:02.628Z,85.16
2022-09-09T05:19:04.233Z,84.89
2022-09-09T05:20:10.264Z,84.73
2022-09-09T05:21:15.529Z,84.50
2022-09-09T05:22:19.785Z,85.05
2022-09-09T05:23:21.457Z,85.18
2022-09-09T05:24:22.958Z,85.75
2022-09-09T05:25:24.953Z,86.24
2022-09-09T05:26:26.387Z,86.60
2022-09-09T05:27:27.845Z,87.00
2022-09-09T05:28:29.631Z,86.59
2022-09-09T05:29:31.146Z,87.64
2022-09-09T05:30:32.552Z,87.77
2022-09-09T05:31:34.122Z,87.31
2022-09-09T05:32:35.638Z,87.09
2022-09-09T05:33:37.281Z,87.15
2022-09-09T05:34:38.746Z,87.09
2022-09-09T05:35:41.510Z,87.14
2022-09-09T05:36:42.912Z,86.75
2022-09-09T05:37:44.384Z,87.10
2022-09-09T05:38:46.144Z,86.87
2022-09-09T05:39:47.649Z,87.49
2022-09-09T05:40:49.282Z,88.13
2022-09-09T05:41:50.733Z,87.74
2022-09-09T05:42:52.173Z,88.34
2022-09-09T05:43:53.616Z,89.16
2022-09-09T05:44:55.020Z,88.43
2022-09-09T05:46:01.602Z,88.05
2022-09-09T05:47:03.191Z,87.80
2022-09-09T05:48:04.702Z,88.67
2022-09-09T05:49:06.148Z,87.87
2022-09-09T05:50:08.359Z,88.60
2022-09-09T05:51:13.092Z,88.32
2022-09-09T05:52:14.515Z,88.69
2022-09-09T05:53:15.931Z,88.81
2022-09-09T05:54:17.610Z,88.36
2022-09-09T05:55:19.044Z,88.41
2022-09-09T05:56:21.985Z,87.73
2022-09-09T05:57:23.437Z,87.90
2022-09-09T05:58:24.840Z,87.25
2022-09-09T05:59:26.260Z,86.93
2022-09-09T06:00:27.965Z,86.99
2022-09-09T06:01:31.747Z,86.42
2022-09-09T06:02:33.308Z,86.88
2022-09-09T06:03:35.847Z,86.77
2022-09-09T06:04:37.281Z,86.76
2022-09-09T06:05:38.697Z,86.67
2022-09-09T06:06:41.495Z,86.36
2022-09-09T06:07:42.942Z,86.61
2022-09-09T06:08:45.832Z,86.38
2022-09-09T06:09:47.284Z,86.36
2022-09-09T06:10:48.699Z,86.45
2022-09-09T06:11:50.180Z,86.46
2022-09-09T06:12:53.846Z,86.56
2022-09-09T06:13:55.283Z,86.54
2022-09-09T06:14:56.722Z,86.55
2022-09-09T06:15:58.824Z,86.98
2022-09-09T06:17:00.349Z,86.73
2022-09-09T06:18:01.760Z,86.96
2022-09-09T06:19:03.451Z,86.73
2022-09-09T06:20:06.015Z,87.00
2022-09-09T06:21:16.318Z,86.67
2022-09-09T06:22:19.152Z,86.40
2022-09-09T06:23:20.676Z,87.25
2022-09-09T06:24:22.143Z,87.91
2022-09-09T06:25:23.677Z,87.51
2022-09-09T06:26:27.394Z,87.87
2022-09-09T06:27:28.927Z,88.04
2022-09-09T06:28:30.359Z,87.16
2022-09-09T06:29:31.813Z,86.82
2022-09-09T06:30:33.220Z,86.61
2022-09-09T06:31:36.132Z,86.99
2022-09-09T06:32:37.700Z,86.99
2022-09-09T06:33:41.088Z,86.92
2022-09-09T06:34:42.515Z,87.09
2022-09-09T06:35:52.196Z,87.07
2022-09-09T06:36:53.613Z,88.35
2022-09-09T06:37:56.428Z,88.40
2022-09-09T06:38:58.170Z,87.38
2022-09-09T06:39:59.644Z,87.10
2022-09-09T06:41:01.115Z,87.07
2022-09-09T06:42:02.567Z,86.93
2022-09-09T06:43:04.027Z,86.57
2022-09-09T06:44:05.468Z,87.15
2022-09-09T06:45:08.183Z,87.20
2022-09-09T06:46:12.513Z,87.49
2022-09-09T06:47:13.987Z,87.11
2022-09-09T06:48:15.428Z,87.14
2022-09-09T06:49:16.835Z,86.79
2022-09-09T06:50:18.254Z,86.44
2022-09-09T06:51:21.584Z,85.63
2022-09-09T06:52:23.030Z,86.09
2022-09-09T06:53:25.845Z,86.56
2022-09-09T06:54:27.314Z,86.11
2022-09-09T06:55:28.755Z,85.82
2022-09-09T06:56:31.791Z,85.98
2022-09-09T06:57:37.448Z,85.69
2022-09-09T06:58:41.001Z,85.36
2022-09-09T06:59:42.461Z,84.84
2022-09-09T07:00:43.955Z,84.53
2022-09-09T07:01:45.615Z,83.88
2022-09-09T07:02:47.165Z,84.03
2022-09-09T07:03:49.882Z,84.01
2022-09-09T07:04:51.334Z,83.00
2022-09-09T07:05:55.912Z,82.52
2022-09-09T07:06:57.375Z,83.35
2022-09-09T07:07:58.909Z,81.85
2022-09-09T07:09:03.633Z,81.93
2022-09-09T07:10:06.032Z,82.57
2022-09-09T07:11:12.371Z,81.69
2022-09-09T07:12:14.047Z,81.19
2022-09-09T07:13:15.518Z,81.32
2022-09-09T07:14:17.389Z,81.62
2022-09-09T07:15:18.841Z,81.57
2022-09-09T07:16:22.659Z,82.06
2022-09-09T07:17:24.200Z,82.33
2022-09-09T07:18:25.671Z,82.36
2022-09-09T07:19:27.265Z,81.89
2022-09-09T07:20:28.675Z,81.21
2022-09-09T07:21:31.819Z,81.18
2022-09-09T07:22:33.267Z,81.12
2022-09-09T07:23:36.392Z,80.52
2022-09-09T07:24:39.355Z,80.17
2022-09-09T07:25:45.557Z,80.41
2022-09-09T07:26:47.016Z,80.24
2022-09-09T07:27:48.499Z,80.16
2022-09-09T07:28:50.227Z,79.94
2022-09-09T07:29:51.649Z,80.45
2022-09-09T07:30:56.562Z,80.59
2022-09-09T07:31:58.092Z,80.43
2022-09-09T07:32:59.517Z,80.05
2022-09-09T07:34:01.366Z,79.96
2022-09-09T07:35:02.807Z,80.20
2022-09-09T07:36:06.887Z,80.24
2022-09-09T07:37:08.350Z,80.82
2022-09-09T07:38:09.769Z,81.04
2022-09-09T07:39:13.247Z,80.45
2022-09-09T07:40:16.097Z,80.75
2022-09-09T07:41:19.625Z,81.09
2022-09-09T07:42:21.044Z,81.15
2022-09-09T07:43:26.993Z,81.21
2022-09-09T07:44:28.618Z,80.78
2022-09-09T07:45:30.104Z,80.74
2022-09-09T07:46:31.655Z,80.12
2022-09-09T07:47:33.150Z,79.95
2022-09-09T07:48:34.757Z,79.86
2022-09-09T07:49:36.295Z,79.55
2022-09-09T07:50:37.729Z,79.51
2022-09-09T07:51:41.260Z,78.95
2022-09-09T07:52:42.734Z,79.25
2022-09-09T07:53:44.521Z,79.25
2022-09-09T07:54:45.960Z,78.81
2022-09-09T07:55:48.764Z,78.40
2022-09-09T07:56:51.275Z,78.76
2022-09-09T07:57:53.207Z,78.64
2022-09-09T07:58:56.373Z,78.64
2022-09-09T07:59:58.173Z,78.95
2022-09-09T08:00:59.748Z,77.89
2022-09-09T08:02:01.260Z,77.15
2022-09-09T08:03:02.916Z,76.73
2022-09-09T08:04:06.272Z,75.79
2022-09-09T08:05:08.439Z,75.89
2022-09-09T08:06:10.101Z,75.47
2022-09-09T08:07:11.568Z,74.97
2022-09-09T08:08:13.019Z,74.99
2022-09-09T08:09:15.458Z,75.28
2022-09-09T08:10:17.026Z,74.44
2022-09-09T08:11:19.988Z,73.59
2022-09-09T08:12:21.415Z,73.65
2022-09-09T08:13:22.860Z,73.94
2022-09-09T08:14:24.523Z,74.66
2022-09-09T08:15:26.012Z,73.08
2022-09-09T08:16:29.375Z,73.44
2022-09-09T08:17:30.855Z,73.81
2022-09-09T08:18:32.330Z,74.31
2022-09-09T08:19:33.889Z,74.94
2022-09-09T08:20:37.244Z,73.75
2022-09-09T08:21:41.262Z,73.81
2022-09-09T08:22:42.717Z,74.50
2022-09-09T08:23:45.623Z,73.35
2022-09-09T08:24:47.079Z,71.96
2022-09-09T08:25:48.532Z,71.52
2022-09-09T08:26:51.272Z,70.83
2022-09-09T08:27:54.349Z,71.94
2022-09-09T08:28:57.224Z,71.33
2022-09-09T08:29:58.665Z,71.09
2022-09-09T08:31:06.982Z,70.64
2022-09-09T08:32:08.539Z,70.76
2022-09-09T08:33:10.353Z,69.18
2022-09-09T08:34:12.586Z,70.16
2022-09-09T08:35:14.226Z,70.43
2022-09-09T08:36:17.254Z,70.55
2022-09-09T08:37:18.663Z,70.87
2022-09-09T08:38:20.083Z,71.04
2022-09-09T08:39:22.714Z,70.60
2022-09-09T08:40:30.470Z,71.35
2022-09-09T08:41:58.232Z,71.08
2022-09-09T08:43:03.482Z,71.22
2022-09-09T08:44:10.567Z,69.99
2022-09-09T08:45:30.194Z,70.14
2022-09-09T08:46:43.873Z,69.80
2022-09-09T08:47:55.982Z,70.80
2022-09-09T08:49:02.766Z,69.43
2022-09-09T08:50:17.120Z,69.59
2022-09-09T08:51:19.894Z,70.35
2022-09-09T08:52:28.053Z,70.88
2022-09-09T08:53:36.105Z,70.12
2022-09-09T08:54:51.703Z,70.68
2022-09-09T08:55:57.241Z,70.04
2022-09-09T08:57:00.153Z,69.20
2022-09-09T08:58:10.559Z,68.78
2022-09-09T08:59:18.044Z,69.66
2022-09-09T09:00:19.912Z,69.30
2022-09-09T09:01:44.882Z,70.40
2022-09-09T09:02:54.571Z,68.70
2022-09-09T09:04:03.617Z,67.52
2022-09-09T09:05:16.291Z,67.28
2022-09-09T09:06:27.667Z,68.05
2022-09-09T09:07:38.611Z,67.79
2022-09-09T09:08:47.794Z,68.13
2022-09-09T09:09:58.259Z,67.65
2022-09-09T09:10:59.747Z,68.19
2022-09-09T09:12:14.050Z,68.71
2022-09-09T09:13:18.088Z,68.54
2022-09-09T09:14:22.484Z,67.66
2022-09-09T09:15:28.333Z,68.45
2022-09-09T09:16:35.184Z,69.70
2022-09-09T09:17:38.428Z,68.53
2022-09-09T09:18:39.852Z,68.85
2022-09-09T09:19:43.229Z,68.48
2022-09-09T09:20:51.722Z,69.40
2022-09-09T09:22:00.613Z,69.15
2022-09-09T09:23:05.113Z,70.21
2022-09-09T09:24:17.408Z,69.29
2022-09-09T09:25:24.780Z,69.18
2022-09-09T09:26:31.618Z,70.02
2022-09-09T09:27:36.290Z,69.18
2022-09-09T09:28:38.116Z,69.10
2022-09-09T09:30:10.084Z,68.38
2022-09-09T09:31:07.033Z,67.78
2022-09-09T09:32:14.252Z,67.09
2022-09-09T09:33:21.847Z,67.90
2022-09-09T09:34:25.033Z,66.52
2022-09-09T09:35:26.560Z,67.00
2022-09-09T09:36:35.349Z,65.84
2022-09-09T09:37:37.136Z,66.03
2022-09-09T09:40:09.403Z,65.59
2022-09-09T09:41:10.980Z,64.23
2022-09-09T09:42:14.907Z,64.43
2022-09-09T09:43:22.640Z,65.35
2022-09-09T09:44:27.055Z,65.33
2022-09-09T09:45:32.780Z,65.02
2022-09-09T09:46:34.325Z,63.78
2022-09-09T09:47:35.784Z,63.91
2022-09-09T09:48:37.566Z,65.57
2022-09-09T09:49:39.047Z,63.00
2022-09-09T09:50:48.381Z,61.29
2022-09-09T09:51:49.808Z,62.75
2022-09-09T09:52:55.854Z,61.95
2022-09-09T09:54:09.774Z,60.10
2022-09-09T09:55:14.973Z,60.77
2022-09-09T09:56:16.494Z,60.21
2022-09-09T09:57:23.263Z,57.98
2022-09-09T09:58:27.713Z,60.59
2022-09-09T09:59:39.696Z,60.40
2022-09-09T10:00:49.055Z,58.38
2022-09-09T10:01:50.671Z,58.19
2022-09-09T10:02:52.274Z,57.51
2022-09-09T10:03:55.196Z,58.38
2022-09-09T10:05:05.463Z,59.05
2022-09-09T10:06:07.223Z,59.69
2022-09-09T10:07:11.736Z,59.88
2022-09-09T10:08:15.299Z,59.02
2022-09-09T10:09:23.189Z,58.97
2022-09-09T10:10:48.175Z,59.22
2022-09-09T10:11:56.808Z,59.86
2022-09-09T10:13:05.827Z,57.64
2022-09-09T10:14:19.699Z,58.99
2022-09-09T10:15:33.085Z,57.35
2022-09-09T10:16:48.165Z,59.05
2022-09-09T10:17:58.205Z,56.54
2022-09-09T10:19:02.021Z,55.08
2022-09-09T10:20:28.980Z,56.60
2022-09-09T10:21:49.459Z,57.69
2022-09-09T10:22:52.744Z,56.80
2022-09-09T10:24:14.208Z,58.96
2022-09-09T10:25:27.138Z,58.58
2022-09-09T10:26:39.158Z,58.87
2022-09-09T10:27:54.284Z,57.26
2022-09-09T10:29:19.421Z,57.88
2022-09-09T10:30:24.001Z,60.24
2022-09-09T10:31:34.950Z,59.04
2022-09-09T10:32:46.209Z,58.58
2022-09-09T10:33:51.985Z,58.46
2022-09-09T10:34:57.636Z,59.02
2022-09-09T10:36:09.054Z,58.79
2022-09-09T10:37:28.035Z,58.71
2022-09-09T10:38:34.798Z,58.45
2022-09-09T10:39:42.184Z,58.41
2022-09-09T10:40:51.716Z,57.97
2022-09-09T10:42:01.707Z,58.63
2022-09-09T10:43:17.168Z,58.06
2022-09-09T10:44:34.251Z,57.52
2022-09-09T10:45:43.834Z,56.27
2022-09-09T10:47:08.068Z,56.59
2022-09-09T10:48:31.572Z,58.45
2022-09-09T10:49:54.043Z,57.95
2022-09-09T10:51:05.288Z,58.26
2022-09-09T10:52:15.050Z,58.45
2022-09-09T10:53:23.877Z,57.32
2022-09-09T10:54:38.962Z,57.50
2022-09-09T10:55:43.374Z,56.27
2022-09-09T10:56:50.854Z,57.06
2022-09-09T10:57:54.722Z,57.32
2022-09-09T10:59:01.316Z,56.84
2022-09-09T11:00:08.126Z,56.81
2022-09-09T11:01:16.371Z,53.88
2022-09-09T11:02:23.076Z,55.56
2022-09-09T11:03:28.709Z,55.77
2022-09-09T11:04:35.283Z,55.99
2022-09-09T11:05:42.609Z,56.42
2022-09-09T11:06:48.988Z,60.58
2022-09-09T11:07:55.143Z,59.73
2022-09-09T11:09:00.576Z,58.10
2022-09-09T11:10:05.854Z,58.55
2022-09-09T11:11:11.961Z,58.29
2022-09-09T11:12:19.240Z,58.36
2022-09-09T11:13:25.403Z,58.65
2022-09-09T11:14:35.446Z,58.04
2022-09-09T11:15:45.707Z,57.16
2022-09-09T11:16:51.451Z,56.65
2022-09-09T11:17:57.385Z,57.36
2022-09-09T11:19:04.203Z,55.54
2022-09-09T11:20:12.008Z,56.57
2022-09-09T11:21:21.524Z,55.94
2022-09-09T11:22:30.290Z,55.75
2022-09-09T11:23:42.269Z,56.31
2022-09-09T11:24:48.017Z,56.72
2022-09-09T11:25:54.484Z,57.35
2022-09-09T11:27:01.241Z,59.26
2022-09-09T11:28:19.771Z,59.75
2022-09-09T11:29:39.912Z,59.94
2022-09-09T11:30:57.381Z,57.62
2022-09-09T11:32:11.687Z,57.36
2022-09-09T11:33:34.586Z,56.53
2022-09-09T11:34:49.049Z,56.45
2022-09-09T11:36:09.993Z,55.37
2022-09-09T11:37:32.885Z,55.95
2022-09-09T11:38:43.866Z,57.07
2022-09-09T11:40:09.866Z,56.18
2022-09-09T11:41:11.597Z,58.02
2022-09-09T11:42:19.397Z,57.18
2022-09-09T11:43:25.891Z,58.58
2022-09-09T11:44:30.866Z,57.90
2022-09-09T11:45:35.406Z,56.32
2022-09-09T11:46:40.087Z,58.01
2022-09-09T11:47:53.456Z,55.38
2022-09-09T11:49:00.830Z,56.50
2022-09-09T11:50:10.712Z,57.63
2022-09-09T11:51:17.081Z,56.52
2022-09-09T11:52:24.680Z,56.76
2022-09-09T11:53:26.209Z,55.95
2022-09-09T11:54:32.583Z,55.08
2022-09-09T11:55:35.417Z,54.93
2022-09-09T11:56:45.150Z,55.24
2022-09-09T11:57:49.553Z,55.61
2022-09-09T11:58:57.050Z,54.90
2022-09-09T11:59:58.943Z,54.35
2022-09-09T12:01:00.411Z,54.75
2022-09-09T12:02:14.916Z,53.71
2022-09-09T12:03:42.600Z,52.65
2022-09-09T12:04:50.484Z,53.17
2022-09-09T12:05:52.160Z,52.41
2022-09-09T12:06:56.082Z,52.54
2022-09-09T12:07:59.540Z,52.42
2022-09-09T12:09:09.876Z,51.44
2022-09-09T12:10:24.764Z,51.88
2022-09-09T12:11:27.419Z,50.56
2022-09-09T12:12:31.674Z,52.47
2022-09-09T12:13:33.159Z,52.13
2022-09-09T12:14:43.559Z,50.92
2022-09-09T12:15:49.560Z,52.64
2022-09-09T12:16:51.130Z,52.55
2022-09-09T12:17:57.216Z,52.63
2022-09-09T12:19:06.819Z,50.81
2022-09-09T12:20:14.417Z,49.41
2022-09-09T12:21:35.101Z,48.63
2022-09-09T12:22:46.551Z,49.67
2022-09-09T12:23:53.290Z,50.95
2022-09-09T12:25:03.055Z,49.01
2022-09-09T12:26:26.622Z,50.40
2022-09-09T12:27:32.407Z,49.46
2022-09-09T12:28:49.332Z,47.77
2022-09-09T12:29:56.318Z,47.32
2022-09-09T12:31:05.327Z,46.88
2022-09-09T12:32:11.085Z,47.58
2022-09-09T12:33:17.630Z,48.23
2022-09-09T12:34:34.112Z,49.23
2022-09-09T12:35:36.016Z,47.95
2022-09-09T12:36:39.679Z,48.92
2022-09-09T12:37:47.328Z,48.02
2022-09-09T12:38:49.213Z,46.77
2022-09-09T12:39:54.751Z,46.69
2022-09-09T12:40:57.620Z,48.49
2022-09-09T12:41:59.078Z,47.98
2022-09-09T12:43:00.544Z,47.11
2022-09-09T12:44:06.564Z,48.07
2022-09-09T12:45:17.571Z,47.02
2022-09-09T12:46:31.558Z,47.52
2022-09-09T12:47:44.196Z,46.92
2022-09-09T12:48:47.170Z,47.14
2022-09-09T12:49:50.904Z,48.34
2022-09-09T12:50:53.800Z,47.84
2022-09-09T12:51:55.952Z,48.45
2022-09-09T12:52:59.457Z,48.98
2022-09-09T12:54:01.582Z,46.99
2022-09-09T12:55:06.022Z,47.29
2022-09-09T12:56:09.651Z,46.03
2022-09-09T12:57:13.169Z,47.68
2022-09-09T12:58:17.867Z,47.24
2022-09-09T12:59:24.792Z,46.80
2022-09-09T13:00:26.462Z,47.58
2022-09-09T13:01:30.453Z,47.19
2022-09-09T13:02:31.986Z,47.65
2022-09-09T13:03:34.934Z,48.55
2022-09-09T13:04:37.742Z,49.63
2022-09-09T13:05:39.737Z,50.73
2022-09-09T13:06:41.220Z,50.78
2022-09-09T13:07:42.633Z,49.90
2022-09-09T13:08:44.079Z,50.87
2022-09-09T13:09:46.515Z,51.38
2022-09-09T13:10:55.450Z,51.40
2022-09-09T13:11:59.316Z,50.49
2022-09-09T13:13:00.926Z,51.78
2022-09-09T13:14:03.479Z,51.47
2022-09-09T13:15:11.656Z,51.67
2022-09-09T13:16:22.980Z,50.68
2022-09-09T13:17:24.872Z,51.75
2022-09-09T13:18:30.590Z,51.90
2022-09-09T13:19:36.855Z,52.35
2022-09-09T13:20:39.764Z,52.18
2022-09-09T13:21:41.321Z,52.73
2022-09-09T13:22:42.784Z,52.47
2022-09-09T13:23:50.397Z,51.43
2022-09-09T13:25:01.242Z,51.71
2022-09-09T13:26:04.555Z,53.23
2022-09-09T13:27:25.090Z,51.73
2022-09-09T13:28:28.826Z,52.13
2022-09-09T13:29:35.446Z,51.24
2022-09-09T13:30:38.526Z,51.07
2022-09-09T13:31:40.188Z,52.36
2022-09-09T13:32:41.636Z,52.58
2022-09-09T13:33:43.119Z,51.86
2022-09-09T13:34:52.455Z,51.47
2022-09-09T13:35:57.296Z,52.08
2022-09-09T13:37:01.696Z,50.99
2022-09-09T13:38:10.005Z,51.00
2022-09-09T13:39:17.502Z,50.70
2022-09-09T13:40:21.463Z,50.51
2022-09-09T13:41:24.555Z,49.89
2022-09-09T13:42:28.651Z,49.04
2022-09-09T13:43:32.601Z,49.74
2022-09-09T13:44:38.503Z,50.21
2022-09-09T13:45:40.130Z,49.78
2022-09-09T13:46:42.876Z,49.40
2022-09-09T13:47:44.320Z,50.55
2022-09-09T13:48:55.146Z,50.24
2022-09-09T13:49:56.619Z,49.30
2022-09-09T13:51:01.871Z,50.39
2022-09-09T13:52:06.224Z,49.96
2022-09-09T13:53:08.293Z,50.60
2022-09-09T13:54:11.316Z,49.22
2022-09-09T13:55:12.943Z,49.99
2022-09-09T13:56:14.405Z,51.04
2022-09-09T13:57:17.895Z,51.03
2022-09-09T13:58:19.848Z,50.44
2022-09-09T13:59:21.476Z,51.00
2022-09-09T14:00:23.878Z,51.35
2022-09-09T14:01:29.324Z,50.36
2022-09-09T14:02:31.151Z,50.97
2022-09-09T14:03:32.598Z,51.24